sensor_id;sensor_type;location;lat;lon;timestamp;P1;durP1;ratioP1;P2;durP2;ratioP2
7647;SDS011;3866;48.020;11.720;2022-09-17T00:01:36;7.63;;;5.63;;
7647;SDS011;3866;48.020;11.720;2022-09-17T00:04:03;5.73;;;5.13;;
7647;SDS011;3866;48.020;11.720;2022-09-17T00:06:31;6.30;;;5.40;;
7647;SDS011;3866;48.020;11.720;2022-09-17T00:08:59;5.90;;;5.30;;
7647;SDS011;3866;48.020;11.720;2022-09-17T00:11:27;6.53;;;5.57;;
7647;SDS011;3866;48.020;11.720;2022-09-17T00:13:56;7.13;;;5.60;;
7647;SDS011;3866;48.020;11.720;2022-09-17T00:16:25;8.30;;;5.70;;
7647;SDS011;3866;48.020;11.720;2022-09-17T00:18:55;9.83;;;6.23;;
7647;SDS011;3866;48.020;11.720;2022-09-17T00:21:23;9.03;;;6.37;;
7647;SDS011;3866;48.020;11.720;2022-09-17T00:23:53;8.63;;;6.73;;
7647;SDS011;3866;48.020;11.720;2022-09-17T00:26:21;8.17;;;6.67;;
7647;SDS011;3866;48.020;11.720;2022-09-17T00:28:48;8.27;;;5.93;;
7647;SDS011;3866;48.020;11.720;2022-09-17T00:31:16;8.37;;;5.67;;
7647;SDS011;3866;48.020;11.720;2022-09-17T00:33:43;7.27;;;5.80;;
7647;SDS011;3866;48.020;11.720;2022-09-17T00:36:11;6.73;;;5.93;;
7647;SDS011;3866;48.020;11.720;2022-09-17T00:38:38;9.40;;;6.77;;
7647;SDS011;3866;48.020;11.720;2022-09-17T00:41:05;7.27;;;5.83;;
7647;SDS011;3866;48.020;11.720;2022-09-17T00:43:34;6.67;;;5.20;;
7647;SDS011;3866;48.020;11.720;2022-09-17T00:46:04;6.87;;;5.60;;
7647;SDS011;3866;48.020;11.720;2022-09-17T00:48:42;9.67;;;4.80;;
7647;SDS011;3866;48.020;11.720;2022-09-17T00:51:12;9.87;;;5.33;;
7647;SDS011;3866;48.020;11.720;2022-09-17T00:53:41;5.43;;;4.93;;
7647;SDS011;3866;48.020;11.720;2022-09-17T00:56:10;5.80;;;5.20;;
7647;SDS011;3866;48.020;11.720;2022-09-17T00:58:43;5.03;;;4.53;;
7647;SDS011;3866;48.020;11.720;2022-09-17T01:01:11;4.87;;;4.27;;
7647;SDS011;3866;48.020;11.720;2022-09-17T01:03:39;7.70;;;4.53;;
7647;SDS011;3866;48.020;11.720;2022-09-17T01:06:08;6.07;;;4.70;;
7647;SDS011;3866;48.020;11.720;2022-09-17T01:08:48;6.33;;;4.00;;
7647;SDS011;3866;48.020;11.720;2022-09-17T01:11:32;6.17;;;4.20;;
7647;SDS011;3866;48.020;11.720;2022-09-17T01:14:14;4.13;;;3.67;;
7647;SDS011;3866;48.020;11.720;2022-09-17T01:16:51;6.00;;;4.33;;
7647;SDS011;3866;48.020;11.720;2022-09-17T01:19:41;4.67;;;4.17;;
7647;SDS011;3866;48.020;11.720;2022-09-17T01:22:35;6.97;;;4.40;;
7647;SDS011;3866;48.020;11.720;2022-09-17T01:25:17;4.93;;;3.90;;
7647;SDS011;3866;48.020;11.720;2022-09-17T01:27:55;4.63;;;4.03;;
7647;SDS011;3866;48.020;11.720;2022-09-17T01:30:53;5.40;;;3.97;;
7647;SDS011;3866;48.020;11.720;2022-09-17T01:33:31;4.83;;;4.23;;
7647;SDS011;3866;48.020;11.720;2022-09-17T01:36:10;8.10;;;4.03;;
7647;SDS011;3866;48.020;11.720;2022-09-17T01:38:47;7.47;;;3.87;;
7647;SDS011;3866;48.020;11.720;2022-09-17T01:41:20;5.90;;;3.47;;
7647;SDS011;3866;48.020;11.720;2022-09-17T01:43:56;6.20;;;3.53;;
7647;SDS011;3866;48.020;11.720;2022-09-17T01:46:30;3.57;;;3.27;;
7647;SDS011;3866;48.020;11.720;2022-09-17T01:49:01;4.50;;;3.07;;
7647;SDS011;3866;48.020;11.720;2022-09-17T01:51:34;4.60;;;3.30;;
7647;SDS011;3866;48.020;11.720;2022-09-17T01:54:04;7.63;;;3.43;;
7647;SDS011;3866;48.020;11.720;2022-09-17T01:56:36;3.20;;;2.90;;
7647;SDS011;3866;48.020;11.720;2022-09-17T01:59:06;4.93;;;3.40;;
7647;SDS011;3866;48.020;11.720;2022-09-17T02:01:44;4.93;;;3.00;;
7647;SDS011;3866;48.020;11.720;2022-09-17T02:04:16;3.77;;;2.57;;
7647;SDS011;3866;48.020;11.720;2022-09-17T02:06:49;6.60;;;3.90;;
7647;SDS011;3866;48.020;11.720;2022-09-17T02:09:23;7.13;;;3.83;;
7647;SDS011;3866;48.020;11.720;2022-09-17T02:11:55;3.97;;;3.43;;
7647;SDS011;3866;48.020;11.720;2022-09-17T02:14:26;3.80;;;3.43;;
7647;SDS011;3866;48.020;11.720;2022-09-17T02:16:59;3.60;;;3.30;;
7647;SDS011;3866;48.020;11.720;2022-09-17T02:19:33;5.40;;;3.57;;
7647;SDS011;3866;48.020;11.720;2022-09-17T02:22:04;4.10;;;3.70;;
7647;SDS011;3866;48.020;11.720;2022-09-17T02:24:39;8.57;;;4.50;;
7647;SDS011;3866;48.020;11.720;2022-09-17T02:27:14;4.93;;;4.43;;
7647;SDS011;3866;48.020;11.720;2022-09-17T02:29:49;4.30;;;3.77;;
7647;SDS011;3866;48.020;11.720;2022-09-17T02:32:17;4.40;;;3.90;;
7647;SDS011;3866;48.020;11.720;2022-09-17T02:34:44;4.33;;;3.90;;
7647;SDS011;3866;48.020;11.720;2022-09-17T02:37:11;4.97;;;3.70;;
7647;SDS011;3866;48.020;11.720;2022-09-17T02:39:39;4.83;;;3.10;;
7647;SDS011;3866;48.020;11.720;2022-09-17T02:42:09;3.97;;;3.53;;
7647;SDS011;3866;48.020;11.720;2022-09-17T02:44:47;5.27;;;3.93;;
7647;SDS011;3866;48.020;11.720;2022-09-17T02:47:32;4.07;;;3.67;;
7647;SDS011;3866;48.020;11.720;2022-09-17T02:50:17;5.30;;;3.77;;
7647;SDS011;3866;48.020;11.720;2022-09-17T02:53:10;6.73;;;3.90;;
7647;SDS011;3866;48.020;11.720;2022-09-17T02:55:49;5.23;;;4.27;;
7647;SDS011;3866;48.020;11.720;2022-09-17T02:58:25;4.73;;;3.50;;
7647;SDS011;3866;48.020;11.720;2022-09-17T03:00:58;5.00;;;3.40;;
7647;SDS011;3866;48.020;11.720;2022-09-17T03:03:32;3.80;;;3.07;;
7647;SDS011;3866;48.020;11.720;2022-09-17T03:06:03;3.37;;;3.10;;
7647;SDS011;3866;48.020;11.720;2022-09-17T03:08:31;2.87;;;2.60;;
7647;SDS011;3866;48.020;11.720;2022-09-17T03:11:02;3.40;;;3.10;;
7647;SDS011;3866;48.020;11.720;2022-09-17T03:13:30;5.60;;;3.60;;
7647;SDS011;3866;48.020;11.720;2022-09-17T03:15:57;3.70;;;2.73;;
7647;SDS011;3866;48.020;11.720;2022-09-17T03:18:24;6.03;;;3.20;;
7647;SDS011;3866;48.020;11.720;2022-09-17T03:20:52;3.03;;;2.20;;
7647;SDS011;3866;48.020;11.720;2022-09-17T03:23:19;2.70;;;2.50;;
7647;SDS011;3866;48.020;11.720;2022-09-17T03:25:46;2.70;;;2.50;;
7647;SDS011;3866;48.020;11.720;2022-09-17T03:28:13;2.00;;;1.70;;
7647;SDS011;3866;48.020;11.720;2022-09-17T03:30:41;1.93;;;1.47;;
7647;SDS011;3866;48.020;11.720;2022-09-17T03:33:08;1.97;;;1.63;;
7647;SDS011;3866;48.020;11.720;2022-09-17T03:35:35;4.03;;;1.60;;
7647;SDS011;3866;48.020;11.720;2022-09-17T03:38:04;2.57;;;1.40;;
7647;SDS011;3866;48.020;11.720;2022-09-17T03:40:31;3.87;;;1.10;;
7647;SDS011;3866;48.020;11.720;2022-09-17T03:42:57;2.77;;;1.40;;
7647;SDS011;3866;48.020;11.720;2022-09-17T03:45:24;2.67;;;1.03;;
7647;SDS011;3866;48.020;11.720;2022-09-17T03:47:51;2.20;;;1.40;;
7647;SDS011;3866;48.020;11.720;2022-09-17T03:50:18;2.20;;;1.30;;
7647;SDS011;3866;48.020;11.720;2022-09-17T03:52:45;2.30;;;1.10;;
7647;SDS011;3866;48.020;11.720;2022-09-17T03:55:14;6.33;;;1.20;;
7647;SDS011;3866;48.020;11.720;2022-09-17T03:57:41;5.10;;;1.40;;
7647;SDS011;3866;48.020;11.720;2022-09-17T04:00:08;2.13;;;1.20;;
7647;SDS011;3866;48.020;11.720;2022-09-17T04:02:37;2.00;;;1.40;;
7647;SDS011;3866;48.020;11.720;2022-09-17T04:05:05;1.83;;;1.30;;
7647;SDS011;3866;48.020;11.720;2022-09-17T04:07:33;2.37;;;1.33;;
7647;SDS011;3866;48.020;11.720;2022-09-17T04:09:59;3.40;;;1.33;;
7647;SDS011;3866;48.020;11.720;2022-09-17T04:12:28;1.60;;;1.50;;
7647;SDS011;3866;48.020;11.720;2022-09-17T04:14:54;4.10;;;1.70;;
7647;SDS011;3866;48.020;11.720;2022-09-17T04:17:21;2.00;;;1.80;;
7647;SDS011;3866;48.020;11.720;2022-09-17T04:19:48;1.70;;;1.53;;
7647;SDS011;3866;48.020;11.720;2022-09-17T04:22:15;4.13;;;2.07;;
7647;SDS011;3866;48.020;11.720;2022-09-17T04:24:42;3.70;;;2.23;;
7647;SDS011;3866;48.020;11.720;2022-09-17T04:27:09;2.70;;;2.33;;
7647;SDS011;3866;48.020;11.720;2022-09-17T04:29:37;4.13;;;2.37;;
7647;SDS011;3866;48.020;11.720;2022-09-17T04:32:04;3.67;;;2.20;;
7647;SDS011;3866;48.020;11.720;2022-09-17T04:34:31;4.57;;;2.70;;
7647;SDS011;3866;48.020;11.720;2022-09-17T04:36:58;2.73;;;2.23;;
7647;SDS011;3866;48.020;11.720;2022-09-17T04:39:25;3.03;;;2.40;;
7647;SDS011;3866;48.020;11.720;2022-09-17T04:41:52;2.20;;;2.10;;
7647;SDS011;3866;48.020;11.720;2022-09-17T04:44:19;2.80;;;2.40;;
7647;SDS011;3866;48.020;11.720;2022-09-17T04:46:48;4.10;;;2.30;;
7647;SDS011;3866;48.020;11.720;2022-09-17T04:49:14;3.47;;;2.30;;
7647;SDS011;3866;48.020;11.720;2022-09-17T04:51:41;2.90;;;2.20;;
7647;SDS011;3866;48.020;11.720;2022-09-17T04:54:08;3.33;;;2.33;;
7647;SDS011;3866;48.020;11.720;2022-09-17T04:56:35;2.80;;;2.33;;
7647;SDS011;3866;48.020;11.720;2022-09-17T04:59:02;2.47;;;2.10;;
7647;SDS011;3866;48.020;11.720;2022-09-17T05:01:29;3.60;;;2.33;;
7647;SDS011;3866;48.020;11.720;2022-09-17T05:03:57;3.40;;;2.20;;
7647;SDS011;3866;48.020;11.720;2022-09-17T05:06:24;2.83;;;2.07;;
7647;SDS011;3866;48.020;11.720;2022-09-17T05:08:50;2.63;;;1.97;;
7647;SDS011;3866;48.020;11.720;2022-09-17T05:11:17;3.20;;;2.27;;
7647;SDS011;3866;48.020;11.720;2022-09-17T05:13:44;2.77;;;2.13;;
7647;SDS011;3866;48.020;11.720;2022-09-17T05:16:11;2.10;;;1.90;;
7647;SDS011;3866;48.020;11.720;2022-09-17T05:18:38;2.33;;;1.80;;
7647;SDS011;3866;48.020;11.720;2022-09-17T05:21:06;4.07;;;2.47;;
7647;SDS011;3866;48.020;11.720;2022-09-17T05:23:33;4.43;;;2.97;;
7647;SDS011;3866;48.020;11.720;2022-09-17T05:26:00;3.60;;;2.63;;
7647;SDS011;3866;48.020;11.720;2022-09-17T05:28:27;3.57;;;2.80;;
7647;SDS011;3866;48.020;11.720;2022-09-17T05:30:57;4.43;;;3.10;;
7647;SDS011;3866;48.020;11.720;2022-09-17T05:33:25;5.17;;;3.10;;
7647;SDS011;3866;48.020;11.720;2022-09-17T05:35:52;5.40;;;3.57;;
7647;SDS011;3866;48.020;11.720;2022-09-17T05:38:20;3.83;;;3.20;;
7647;SDS011;3866;48.020;11.720;2022-09-17T05:40:47;8.10;;;3.60;;
7647;SDS011;3866;48.020;11.720;2022-09-17T05:43:14;6.53;;;3.40;;
7647;SDS011;3866;48.020;11.720;2022-09-17T05:45:41;4.33;;;2.93;;
7647;SDS011;3866;48.020;11.720;2022-09-17T05:48:08;5.63;;;3.60;;
7647;SDS011;3866;48.020;11.720;2022-09-17T05:50:37;3.57;;;2.57;;
7647;SDS011;3866;48.020;11.720;2022-09-17T05:53:05;3.83;;;2.70;;
7647;SDS011;3866;48.020;11.720;2022-09-17T05:55:34;3.43;;;2.40;;
7647;SDS011;3866;48.020;11.720;2022-09-17T05:58:07;4.30;;;2.80;;
7647;SDS011;3866;48.020;11.720;2022-09-17T06:00:35;4.73;;;2.67;;
7647;SDS011;3866;48.020;11.720;2022-09-17T06:03:02;4.03;;;2.83;;
7647;SDS011;3866;48.020;11.720;2022-09-17T06:05:29;2.87;;;2.50;;
7647;SDS011;3866;48.020;11.720;2022-09-17T06:07:56;5.33;;;2.70;;
7647;SDS011;3866;48.020;11.720;2022-09-17T06:10:23;4.47;;;3.00;;
7647;SDS011;3866;48.020;11.720;2022-09-17T06:12:55;4.07;;;2.87;;
7647;SDS011;3866;48.020;11.720;2022-09-17T06:15:22;3.53;;;2.63;;
7647;SDS011;3866;48.020;11.720;2022-09-17T06:17:49;2.43;;;2.17;;
7647;SDS011;3866;48.020;11.720;2022-09-17T06:20:16;4.20;;;2.27;;
7647;SDS011;3866;48.020;11.720;2022-09-17T06:22:43;4.70;;;2.73;;
7647;SDS011;3866;48.020;11.720;2022-09-17T06:25:10;3.80;;;2.20;;
7647;SDS011;3866;48.020;11.720;2022-09-17T06:27:37;3.13;;;2.30;;
7647;SDS011;3866;48.020;11.720;2022-09-17T06:30:06;5.23;;;2.53;;
7647;SDS011;3866;48.020;11.720;2022-09-17T06:32:33;3.23;;;2.10;;
7647;SDS011;3866;48.020;11.720;2022-09-17T06:35:00;2.30;;;2.10;;
7647;SDS011;3866;48.020;11.720;2022-09-17T06:37:27;5.57;;;2.40;;
7647;SDS011;3866;48.020;11.720;2022-09-17T06:39:55;5.47;;;2.13;;
7647;SDS011;3866;48.020;11.720;2022-09-17T06:42:23;3.13;;;2.07;;
7647;SDS011;3866;48.020;11.720;2022-09-17T06:44:50;2.43;;;2.13;;
7647;SDS011;3866;48.020;11.720;2022-09-17T06:47:18;3.57;;;2.10;;
7647;SDS011;3866;48.020;11.720;2022-09-17T06:49:45;2.57;;;2.03;;
7647;SDS011;3866;48.020;11.720;2022-09-17T06:52:12;3.87;;;2.37;;
7647;SDS011;3866;48.020;11.720;2022-09-17T06:54:39;4.97;;;2.27;;
7647;SDS011;3866;48.020;11.720;2022-09-17T06:57:06;4.63;;;2.03;;
7647;SDS011;3866;48.020;11.720;2022-09-17T06:59:33;6.67;;;2.50;;
7647;SDS011;3866;48.020;11.720;2022-09-17T07:01:59;5.57;;;2.67;;
7647;SDS011;3866;48.020;11.720;2022-09-17T07:04:28;3.73;;;2.20;;
7647;SDS011;3866;48.020;11.720;2022-09-17T07:06:54;3.20;;;2.30;;
7647;SDS011;3866;48.020;11.720;2022-09-17T07:09:21;4.30;;;2.43;;
7647;SDS011;3866;48.020;11.720;2022-09-17T07:11:48;4.17;;;2.50;;
7647;SDS011;3866;48.020;11.720;2022-09-17T08:12:38;2.70;;;1.33;;
7647;SDS011;3866;48.020;11.720;2022-09-17T08:18:34;3.23;;;1.57;;
7647;SDS011;3866;48.020;11.720;2022-09-17T08:21:01;2.47;;;1.47;;
7647;SDS011;3866;48.020;11.720;2022-09-17T08:23:30;2.93;;;1.60;;
7647;SDS011;3866;48.020;11.720;2022-09-17T08:25:59;1.57;;;0.90;;
7647;SDS011;3866;48.020;11.720;2022-09-17T08:28:29;1.63;;;1.20;;
7647;SDS011;3866;48.020;11.720;2022-09-17T08:30:59;9.23;;;4.50;;
7647;SDS011;3866;48.020;11.720;2022-09-17T08:33:29;4.77;;;2.33;;
7647;SDS011;3866;48.020;11.720;2022-09-17T08:35:56;2.20;;;1.70;;
7647;SDS011;3866;48.020;11.720;2022-09-17T08:38:23;6.10;;;1.33;;
7647;SDS011;3866;48.020;11.720;2022-09-17T08:40:53;3.37;;;1.17;;
7647;SDS011;3866;48.020;11.720;2022-09-17T08:43:29;5.13;;;1.40;;
7647;SDS011;3866;48.020;11.720;2022-09-17T08:45:58;5.30;;;1.37;;
7647;SDS011;3866;48.020;11.720;2022-09-17T08:48:27;2.87;;;1.20;;
7647;SDS011;3866;48.020;11.720;2022-09-17T08:51:03;6.23;;;1.77;;
7647;SDS011;3866;48.020;11.720;2022-09-17T08:53:39;1.57;;;0.73;;
7647;SDS011;3866;48.020;11.720;2022-09-17T08:56:15;1.73;;;0.90;;
7647;SDS011;3866;48.020;11.720;2022-09-17T09:01:44;3.17;;;1.23;;
7647;SDS011;3866;48.020;11.720;2022-09-17T09:04:32;9.47;;;1.90;;
7647;SDS011;3866;48.020;11.720;2022-09-17T09:07:10;3.47;;;1.30;;
7647;SDS011;3866;48.020;11.720;2022-09-17T09:09:42;2.23;;;0.80;;
7647;SDS011;3866;48.020;11.720;2022-09-17T09:12:15;6.67;;;1.93;;
7647;SDS011;3866;48.020;11.720;2022-09-17T09:14:49;3.63;;;1.10;;
7647;SDS011;3866;48.020;11.720;2022-09-17T09:17:20;2.80;;;1.23;;
7647;SDS011;3866;48.020;11.720;2022-09-17T09:19:51;4.97;;;1.57;;
7647;SDS011;3866;48.020;11.720;2022-09-17T09:22:29;7.33;;;1.70;;
7647;SDS011;3866;48.020;11.720;2022-09-17T09:25:04;3.53;;;1.20;;
7647;SDS011;3866;48.020;11.720;2022-09-17T09:27:42;7.53;;;6.77;;
7647;SDS011;3866;48.020;11.720;2022-09-17T09:30:15;5.17;;;1.47;;
7647;SDS011;3866;48.020;11.720;2022-09-17T09:32:50;13.57;;;9.37;;
7647;SDS011;3866;48.020;11.720;2022-09-17T09:35:24;7.57;;;3.60;;
7647;SDS011;3866;48.020;11.720;2022-09-17T09:37:54;4.23;;;1.40;;
7647;SDS011;3866;48.020;11.720;2022-09-17T09:40:27;4.67;;;1.47;;
7647;SDS011;3866;48.020;11.720;2022-09-17T09:43:00;2.80;;;1.20;;
7647;SDS011;3866;48.020;11.720;2022-09-17T09:45:40;1.73;;;0.80;;
7647;SDS011;3866;48.020;11.720;2022-09-17T09:48:25;2.77;;;1.40;;
7647;SDS011;3866;48.020;11.720;2022-09-17T09:51:03;4.50;;;1.10;;
7647;SDS011;3866;48.020;11.720;2022-09-17T09:53:42;5.50;;;1.77;;
7647;SDS011;3866;48.020;11.720;2022-09-17T09:56:36;5.53;;;1.50;;
7647;SDS011;3866;48.020;11.720;2022-09-17T09:59:14;5.33;;;1.67;;
7647;SDS011;3866;48.020;11.720;2022-09-17T10:01:42;4.23;;;1.90;;
7647;SDS011;3866;48.020;11.720;2022-09-17T10:04:14;5.07;;;1.60;;
7647;SDS011;3866;48.020;11.720;2022-09-17T10:06:46;6.47;;;1.80;;
7647;SDS011;3866;48.020;11.720;2022-09-17T10:09:14;4.80;;;1.40;;
7647;SDS011;3866;48.020;11.720;2022-09-17T10:11:57;3.00;;;1.83;;
7647;SDS011;3866;48.020;11.720;2022-09-17T10:14:30;2.87;;;1.70;;
7647;SDS011;3866;48.020;11.720;2022-09-17T10:20:13;3.90;;;1.50;;
7647;SDS011;3866;48.020;11.720;2022-09-17T10:22:41;7.47;;;2.13;;
7647;SDS011;3866;48.020;11.720;2022-09-17T10:25:22;3.17;;;2.00;;
7647;SDS011;3866;48.020;11.720;2022-09-17T10:27:53;3.17;;;2.00;;
7647;SDS011;3866;48.020;11.720;2022-09-17T10:30:22;5.50;;;1.43;;
7647;SDS011;3866;48.020;11.720;2022-09-17T10:35:54;4.93;;;1.67;;
7647;SDS011;3866;48.020;11.720;2022-09-17T10:38:27;6.57;;;1.40;;
7647;SDS011;3866;48.020;11.720;2022-09-17T10:41:13;3.93;;;1.13;;
7647;SDS011;3866;48.020;11.720;2022-09-17T10:43:41;4.20;;;1.53;;
7647;SDS011;3866;48.020;11.720;2022-09-17T10:46:09;4.47;;;1.33;;
7647;SDS011;3866;48.020;11.720;2022-09-17T10:48:42;4.30;;;1.23;;
7647;SDS011;3866;48.020;11.720;2022-09-17T10:51:18;4.80;;;1.20;;
7647;SDS011;3866;48.020;11.720;2022-09-17T10:56:41;5.90;;;2.03;;
7647;SDS011;3866;48.020;11.720;2022-09-17T10:59:22;5.40;;;1.20;;
7647;SDS011;3866;48.020;11.720;2022-09-17T11:02:11;2.20;;;1.60;;
7647;SDS011;3866;48.020;11.720;2022-09-17T11:05:06;4.43;;;1.47;;
7647;SDS011;3866;48.020;11.720;2022-09-17T11:07:46;5.80;;;2.00;;
7647;SDS011;3866;48.020;11.720;2022-09-17T11:10:20;6.70;;;2.27;;
7647;SDS011;3866;48.020;11.720;2022-09-17T11:12:58;7.23;;;1.90;;
7647;SDS011;3866;48.020;11.720;2022-09-17T11:15:43;4.23;;;1.80;;
7647;SDS011;3866;48.020;11.720;2022-09-17T11:21:24;7.47;;;4.40;;
7647;SDS011;3866;48.020;11.720;2022-09-17T11:24:13;6.10;;;2.37;;
7647;SDS011;3866;48.020;11.720;2022-09-17T11:27:16;3.00;;;1.90;;
7647;SDS011;3866;48.020;11.720;2022-09-17T11:29:57;5.70;;;2.10;;
7647;SDS011;3866;48.020;11.720;2022-09-17T11:32:37;6.83;;;2.13;;
7647;SDS011;3866;48.020;11.720;2022-09-17T11:35:22;5.37;;;2.70;;
7647;SDS011;3866;48.020;11.720;2022-09-17T11:37:54;5.67;;;2.33;;
7647;SDS011;3866;48.020;11.720;2022-09-17T11:40:33;1.53;;;1.43;;
7647;SDS011;3866;48.020;11.720;2022-09-17T11:43:06;3.30;;;1.30;;
7647;SDS011;3866;48.020;11.720;2022-09-17T11:45:43;2.57;;;1.20;;
7647;SDS011;3866;48.020;11.720;2022-09-17T11:48:18;3.60;;;1.40;;
7647;SDS011;3866;48.020;11.720;2022-09-17T11:50:49;2.27;;;1.30;;
7647;SDS011;3866;48.020;11.720;2022-09-17T11:53:24;2.63;;;1.63;;
7647;SDS011;3866;48.020;11.720;2022-09-17T11:55:57;4.47;;;1.27;;
7647;SDS011;3866;48.020;11.720;2022-09-17T11:58:40;2.50;;;1.13;;
7647;SDS011;3866;48.020;11.720;2022-09-17T12:01:10;2.03;;;0.93;;
7647;SDS011;3866;48.020;11.720;2022-09-17T12:03:42;0.87;;;0.60;;
7647;SDS011;3866;48.020;11.720;2022-09-17T12:06:13;1.40;;;0.80;;
7647;SDS011;3866;48.020;11.720;2022-09-17T12:08:47;1.70;;;0.60;;
7647;SDS011;3866;48.020;11.720;2022-09-17T12:11:20;1.87;;;0.60;;
7647;SDS011;3866;48.020;11.720;2022-09-17T12:13:53;2.17;;;0.80;;
7647;SDS011;3866;48.020;11.720;2022-09-17T12:16:23;1.37;;;1.00;;
7647;SDS011;3866;48.020;11.720;2022-09-17T12:18:55;3.43;;;0.90;;
7647;SDS011;3866;48.020;11.720;2022-09-17T12:21:28;2.20;;;0.90;;
7647;SDS011;3866;48.020;11.720;2022-09-17T12:24:00;1.33;;;0.87;;
7647;SDS011;3866;48.020;11.720;2022-09-17T12:26:33;3.63;;;1.30;;
7647;SDS011;3866;48.020;11.720;2022-09-17T12:29:21;2.37;;;1.20;;
7647;SDS011;3866;48.020;11.720;2022-09-17T12:32:00;1.70;;;1.60;;
7647;SDS011;3866;48.020;11.720;2022-09-17T12:34:36;3.77;;;1.03;;
7647;SDS011;3866;48.020;11.720;2022-09-17T12:37:13;3.27;;;1.00;;
7647;SDS011;3866;48.020;11.720;2022-09-17T12:40:01;3.03;;;1.23;;
7647;SDS011;3866;48.020;11.720;2022-09-17T12:42:44;2.27;;;0.97;;
7647;SDS011;3866;48.020;11.720;2022-09-17T12:45:23;2.77;;;1.17;;
7647;SDS011;3866;48.020;11.720;2022-09-17T12:51:04;3.17;;;1.27;;
7647;SDS011;3866;48.020;11.720;2022-09-17T12:53:42;2.13;;;1.10;;
7647;SDS011;3866;48.020;11.720;2022-09-17T12:56:24;1.93;;;1.00;;
7647;SDS011;3866;48.020;11.720;2022-09-17T12:59:07;2.33;;;1.20;;
7647;SDS011;3866;48.020;11.720;2022-09-17T13:01:42;2.53;;;0.90;;
7647;SDS011;3866;48.020;11.720;2022-09-17T13:04:18;1.23;;;1.13;;
7647;SDS011;3866;48.020;11.720;2022-09-17T13:09:57;3.07;;;1.60;;
7647;SDS011;3866;48.020;11.720;2022-09-17T13:12:46;3.37;;;1.73;;
7647;SDS011;3866;48.020;11.720;2022-09-17T13:15:21;3.53;;;0.97;;
7647;SDS011;3866;48.020;11.720;2022-09-17T13:18:06;4.13;;;1.23;;
7647;SDS011;3866;48.020;11.720;2022-09-17T13:20:40;2.33;;;1.57;;
7647;SDS011;3866;48.020;11.720;2022-09-17T13:23:14;2.33;;;1.40;;
7647;SDS011;3866;48.020;11.720;2022-09-17T13:25:50;1.20;;;1.10;;
7647;SDS011;3866;48.020;11.720;2022-09-17T13:28:19;3.97;;;1.67;;
7647;SDS011;3866;48.020;11.720;2022-09-17T13:30:56;2.70;;;1.20;;
7647;SDS011;3866;48.020;11.720;2022-09-17T13:39:05;3.93;;;1.00;;
7647;SDS011;3866;48.020;11.720;2022-09-17T13:41:34;2.70;;;1.37;;
7647;SDS011;3866;48.020;11.720;2022-09-17T13:44:04;1.60;;;0.80;;
7647;SDS011;3866;48.020;11.720;2022-09-17T13:46:34;0.80;;;0.80;;
7647;SDS011;3866;48.020;11.720;2022-09-17T13:49:03;2.43;;;0.87;;
7647;SDS011;3866;48.020;11.720;2022-09-17T13:51:49;3.03;;;0.70;;
7647;SDS011;3866;48.020;11.720;2022-09-17T13:54:18;0.97;;;0.90;;
7647;SDS011;3866;48.020;11.720;2022-09-17T13:56:48;1.77;;;1.23;;
7647;SDS011;3866;48.020;11.720;2022-09-17T13:59:29;2.10;;;1.37;;
7647;SDS011;3866;48.020;11.720;2022-09-17T14:02:00;1.40;;;1.20;;
7647;SDS011;3866;48.020;11.720;2022-09-17T14:10:56;3.07;;;2.50;;
7647;SDS011;3866;48.020;11.720;2022-09-17T14:22:11;2.60;;;2.10;;
7647;SDS011;3866;48.020;11.720;2022-09-17T14:24:44;2.00;;;1.73;;
7647;SDS011;3866;48.020;11.720;2022-09-17T14:30:13;3.03;;;1.73;;
7647;SDS011;3866;48.020;11.720;2022-09-17T14:32:47;1.20;;;1.10;;
7647;SDS011;3866;48.020;11.720;2022-09-17T14:35:25;2.20;;;1.03;;
7647;SDS011;3866;48.020;11.720;2022-09-17T14:37:57;1.53;;;0.90;;
7647;SDS011;3866;48.020;11.720;2022-09-17T14:40:27;2.23;;;0.77;;
7647;SDS011;3866;48.020;11.720;2022-09-17T14:42:58;4.20;;;0.93;;
7647;SDS011;3866;48.020;11.720;2022-09-17T14:45:26;3.70;;;1.03;;
7647;SDS011;3866;48.020;11.720;2022-09-17T14:51:12;1.53;;;1.00;;
7647;SDS011;3866;48.020;11.720;2022-09-17T14:54:04;3.03;;;1.00;;
7647;SDS011;3866;48.020;11.720;2022-09-17T14:56:45;2.07;;;1.83;;
7647;SDS011;3866;48.020;11.720;2022-09-17T14:59:17;3.50;;;1.33;;
7647;SDS011;3866;48.020;11.720;2022-09-17T15:01:48;2.13;;;1.03;;
7647;SDS011;3866;48.020;11.720;2022-09-17T15:04:22;2.67;;;1.20;;
7647;SDS011;3866;48.020;11.720;2022-09-17T15:06:52;5.23;;;2.83;;
7647;SDS011;3866;48.020;11.720;2022-09-17T15:09:31;4.97;;;2.17;;
7647;SDS011;3866;48.020;11.720;2022-09-17T15:11:58;5.83;;;3.20;;
7647;SDS011;3866;48.020;11.720;2022-09-17T15:14:27;2.70;;;2.03;;
7647;SDS011;3866;48.020;11.720;2022-09-17T15:16:58;4.73;;;1.87;;
7647;SDS011;3866;48.020;11.720;2022-09-17T15:19:28;5.30;;;1.37;;
7647;SDS011;3866;48.020;11.720;2022-09-17T15:22:01;2.53;;;1.43;;
7647;SDS011;3866;48.020;11.720;2022-09-17T15:24:34;2.10;;;0.97;;
7647;SDS011;3866;48.020;11.720;2022-09-17T15:27:07;2.60;;;1.30;;
7647;SDS011;3866;48.020;11.720;2022-09-17T15:29:37;1.80;;;1.30;;
7647;SDS011;3866;48.020;11.720;2022-09-17T15:32:07;4.10;;;1.10;;
7647;SDS011;3866;48.020;11.720;2022-09-17T15:34:36;1.57;;;0.80;;
7647;SDS011;3866;48.020;11.720;2022-09-17T15:37:05;1.57;;;1.43;;
7647;SDS011;3866;48.020;11.720;2022-09-17T15:39:41;1.43;;;1.10;;
7647;SDS011;3866;48.020;11.720;2022-09-17T15:42:17;0.67;;;0.67;;
7647;SDS011;3866;48.020;11.720;2022-09-17T15:44:46;1.70;;;0.60;;
7647;SDS011;3866;48.020;11.720;2022-09-17T15:50:03;2.17;;;1.30;;
7647;SDS011;3866;48.020;11.720;2022-09-17T15:52:39;1.03;;;0.60;;
7647;SDS011;3866;48.020;11.720;2022-09-17T15:58:00;2.27;;;0.50;;
7647;SDS011;3866;48.020;11.720;2022-09-17T16:00:29;0.97;;;0.30;;
7647;SDS011;3866;48.020;11.720;2022-09-17T16:02:57;0.47;;;0.20;;
7647;SDS011;3866;48.020;11.720;2022-09-17T16:11:00;0.60;;;0.60;;
7647;SDS011;3866;48.020;11.720;2022-09-17T16:13:27;1.20;;;0.60;;
7647;SDS011;3866;48.020;11.720;2022-09-17T16:15:53;1.67;;;0.80;;
7647;SDS011;3866;48.020;11.720;2022-09-17T16:18:20;1.27;;;0.90;;
7647;SDS011;3866;48.020;11.720;2022-09-17T16:20:47;1.67;;;0.90;;
7647;SDS011;3866;48.020;11.720;2022-09-17T16:23:14;1.03;;;0.70;;
7647;SDS011;3866;48.020;11.720;2022-09-17T16:25:42;2.27;;;1.40;;
7647;SDS011;3866;48.020;11.720;2022-09-17T16:28:11;0.80;;;0.80;;
7647;SDS011;3866;48.020;11.720;2022-09-17T16:30:40;3.23;;;1.00;;
7647;SDS011;3866;48.020;11.720;2022-09-17T16:33:11;1.73;;;1.03;;
7647;SDS011;3866;48.020;11.720;2022-09-17T16:35:39;3.80;;;0.90;;
7647;SDS011;3866;48.020;11.720;2022-09-17T16:38:06;1.30;;;0.67;;
7647;SDS011;3866;48.020;11.720;2022-09-17T16:40:38;0.90;;;0.87;;
7647;SDS011;3866;48.020;11.720;2022-09-17T16:43:07;3.17;;;1.57;;
7647;SDS011;3866;48.020;11.720;2022-09-17T16:45:34;2.27;;;1.23;;
7647;SDS011;3866;48.020;11.720;2022-09-17T16:48:02;1.90;;;1.10;;
7647;SDS011;3866;48.020;11.720;2022-09-17T16:50:29;1.97;;;1.33;;
7647;SDS011;3866;48.020;11.720;2022-09-17T16:52:56;2.17;;;0.90;;
7647;SDS011;3866;48.020;11.720;2022-09-17T16:55:23;3.77;;;1.40;;
7647;SDS011;3866;48.020;11.720;2022-09-17T16:57:50;1.33;;;1.00;;
7647;SDS011;3866;48.020;11.720;2022-09-17T17:00:18;10.70;;;7.50;;
7647;SDS011;3866;48.020;11.720;2022-09-17T17:02:50;3.10;;;2.10;;
7647;SDS011;3866;48.020;11.720;2022-09-17T17:05:18;0.97;;;0.93;;
7647;SDS011;3866;48.020;11.720;2022-09-17T17:07:45;1.47;;;1.00;;
7647;SDS011;3866;48.020;11.720;2022-09-17T17:10:12;2.33;;;0.90;;
7647;SDS011;3866;48.020;11.720;2022-09-17T17:12:39;1.83;;;0.70;;
7647;SDS011;3866;48.020;11.720;2022-09-17T17:15:06;1.13;;;0.87;;
7647;SDS011;3866;48.020;11.720;2022-09-17T17:17:35;0.60;;;0.60;;
7647;SDS011;3866;48.020;11.720;2022-09-17T17:20:03;1.77;;;0.70;;
7647;SDS011;3866;48.020;11.720;2022-09-17T17:22:34;1.13;;;0.83;;
7647;SDS011;3866;48.020;11.720;2022-09-17T17:25:02;2.10;;;0.60;;
7647;SDS011;3866;48.020;11.720;2022-09-17T17:27:30;0.80;;;0.40;;
7647;SDS011;3866;48.020;11.720;2022-09-17T17:29:57;2.67;;;1.77;;